Chignik, AK

4:31 PM AKDT on September 28, 2016 (GMT -0800)
Chignik

Weather History for PAJC - February, 2014

Change the Weather History Date:

Friday, February 21, 2014

  Actual Average Record
Temperature  
Mean Temperature 37 °F -  
Max Temperature 41 °F 34 °F 44 °F (2015)
Min Temperature 33 °F 28 °F 21 °F (2007)
Degree Days  
Heating Degree Days 28    
Moisture  
Dew Point 37 °F    
Average Humidity 97    
Maximum Humidity 100    
Minimum Humidity 93    
Precipitation  
Precipitation 3.40 in - - ()
Sea Level Pressure  
Sea Level Pressure 29.66 in    
Wind  
Wind Speed 14 mph (ESE)    
Max Wind Speed 25 mph    
Max Gust Speed 50 mph    
Visibility 4 miles    
Events      
Averages and records for this station are not official NWS values.
T = Trace of Precipitation, MM = Missing Value Source: NWS Daily Summary

Daily Weather History Graph

Daily Weather History Graph

Search for Another Location

Airport or City:

Trip Planner

Search our weather history database for the weather conditions in past years. The results will help you decide how hot, cold, wet, or windy it might be!

Date:

Astronomy

Feb. 21, 2014 Rise Set
Actual Time 8:44 AM AKST 6:50 PM AKST
Civil Twilight 8:06 AM AKST 7:28 PM AKST
Nautical Twilight 7:22 AM AKST 8:12 PM AKST
Astronomical Twilight 6:39 AM AKST 8:55 PM AKST
Moon 2:08 AM AKST (2/21) 11:01 AM AKST (2/21)
Length of Visible Light 11h 22m
Length of Day
10h 05m
Waning Gibbous, 59% of the Moon is Illuminated
Feb 21
Waning Gibbous
Feb 22
Last Quarter
Feb 28
New
Mar 8
First Quarter
Mar 16
Full

Hourly Weather History & Observations

Time (AKST) Temp. Windchill Dew Point Humidity Pressure Visibility Wind Dir Wind Speed Gust Speed Precip Events Conditions
12:36 AM 33.8 °F 24.3 °F 33.8 °F 100% 29.77 in 2.0 mi NE 13.8 mph 20.7 mph N/A   Overcast
12:56 AM 33.8 °F 23.5 °F 33.8 °F 100% 29.77 in 2.0 mi NE 16.1 mph 21.9 mph N/A   Overcast
1:16 AM 33.8 °F 23.9 °F 32.0 °F 93% 29.77 in 2.0 mi NE 15.0 mph 21.9 mph N/A   Overcast
1:36 AM 33.8 °F 24.8 °F 32.0 °F 93% 29.76 in 2.0 mi ENE 12.7 mph 17.3 mph N/A   Overcast
1:56 AM 33.8 °F 24.8 °F 32.0 °F 93% 29.76 in 3.0 mi ENE 12.7 mph 19.6 mph 0.18 in   Overcast
2:16 AM 33.8 °F 24.3 °F 32.0 °F 93% 29.75 in 5.0 mi ENE 13.8 mph 21.9 mph 0.06 in   Overcast
2:36 AM 35.6 °F 27.1 °F 33.8 °F 93% 29.75 in 5.0 mi ENE 12.7 mph - 0.11 in   Overcast
2:56 AM 33.8 °F 25.3 °F 32.0 °F 93% 29.75 in 5.0 mi ENE 11.5 mph - 0.17 in   Overcast
3:16 AM 33.8 °F 25.8 °F 32.0 °F 93% 29.74 in 5.0 mi ENE 10.4 mph - 0.06 in   Overcast
3:36 AM 35.6 °F 27.1 °F 33.8 °F 93% 29.74 in 5.0 mi East 12.7 mph 18.4 mph 0.12 in   Overcast
3:56 AM 35.6 °F 27.5 °F 33.8 °F 93% 29.73 in 5.0 mi East 11.5 mph 16.1 mph 0.19 in   Overcast
4:16 AM 35.6 °F 26.6 °F 33.8 °F 93% 29.73 in 4.0 mi ENE 13.8 mph 19.6 mph 0.06 in   Overcast
4:36 AM 35.6 °F 28.0 °F 33.8 °F 93% 29.72 in 5.0 mi ENE 10.4 mph 16.1 mph 0.13 in   Overcast
4:56 AM 35.6 °F 29.2 °F 35.6 °F 100% 29.71 in 5.0 mi East 8.1 mph 18.4 mph 0.20 in   Overcast
5:16 AM 35.6 °F 27.5 °F 35.6 °F 100% 29.71 in 3.0 mi ENE 11.5 mph 17.3 mph 0.05 in   Overcast
5:36 AM 35.6 °F 28.0 °F 35.6 °F 100% 29.71 in 3.0 mi ENE 10.4 mph 16.1 mph 0.12 in   Overcast
5:56 AM 35.6 °F 27.5 °F 33.8 °F 93% 29.71 in 3.0 mi East 11.5 mph 17.3 mph 0.17 in   Overcast
6:16 AM 37.4 °F 28.5 °F 35.6 °F 93% 29.71 in 5.0 mi East 15.0 mph 21.9 mph 0.06 in   Overcast
6:36 AM 37.4 °F 29.3 °F 35.6 °F 93% 29.71 in 6.0 mi East 12.7 mph 19.6 mph 0.13 in   Overcast
6:56 AM 37.4 °F 29.3 °F 35.6 °F 93% 29.71 in 5.0 mi East 12.7 mph 26.5 mph 0.19 in   Overcast
7:16 AM 37.4 °F 28.9 °F 35.6 °F 93% 29.70 in 5.0 mi East 13.8 mph 25.3 mph 0.09 in   Overcast
7:36 AM 35.6 °F 26.2 °F 35.6 °F 100% 29.71 in 5.0 mi East 15.0 mph 21.9 mph 0.15 in   Overcast
7:56 AM 35.6 °F 25.9 °F 35.6 °F 100% 29.70 in 4.0 mi East 16.1 mph 23.0 mph 0.21 in   Overcast
8:16 AM 35.6 °F 26.6 °F 35.6 °F 100% 29.69 in 3.0 mi East 13.8 mph 24.2 mph 0.04 in   Overcast
8:36 AM 37.4 °F 28.5 °F 35.6 °F 93% 29.70 in 4.0 mi East 15.0 mph 23.0 mph 0.08 in   Overcast
8:56 AM 37.4 °F 28.9 °F 35.6 °F 93% 29.69 in 3.0 mi ENE 13.8 mph 26.5 mph 0.13 in   Overcast
9:16 AM 37.4 °F 28.2 °F 35.6 °F 93% 29.69 in 2.0 mi East 16.1 mph 24.2 mph 0.03 in   Overcast
9:36 AM 37.4 °F 29.3 °F 35.6 °F 93% 29.69 in 2.5 mi East 12.7 mph 20.7 mph 0.09 in   Overcast
9:56 AM 37.4 °F 29.3 °F 37.4 °F 100% 29.68 in 3.0 mi East 12.7 mph 21.9 mph 0.12 in   Overcast
10:16 AM 37.4 °F 28.9 °F 37.4 °F 100% 29.68 in 2.5 mi ENE 13.8 mph 21.9 mph 0.02 in   Overcast
10:36 AM 37.4 °F 30.3 °F 37.4 °F 100% 29.67 in 2.0 mi East 10.4 mph - 0.04 in   Overcast
10:56 AM 37.4 °F 29.8 °F 37.4 °F 100% 29.67 in 2.0 mi East 11.5 mph - 0.08 in   Overcast
11:16 AM 39.2 °F 32.5 °F 37.4 °F 93% 29.67 in 3.0 mi East 10.4 mph - 0.02 in   Overcast
11:36 AM 39.2 °F 32.5 °F 39.2 °F 100% 29.66 in 2.5 mi East 10.4 mph 17.3 mph 0.05 in   Overcast
11:56 AM 39.2 °F 31.6 °F 39.2 °F 100% 29.66 in 3.0 mi ESE 12.7 mph 19.6 mph 0.08 in   Overcast
12:16 PM 39.2 °F 30.5 °F 39.2 °F 100% 29.64 in 4.0 mi East 16.1 mph 20.7 mph 0.03 in   Overcast
12:36 PM 39.2 °F 31.2 °F 39.2 °F 100% 29.64 in 5.0 mi ESE 13.8 mph 21.9 mph 0.06 in   Overcast
12:56 PM 39.2 °F 31.2 °F 39.2 °F 100% 29.64 in 5.0 mi SE 13.8 mph 21.9 mph 0.09 in   Overcast
1:16 PM 39.2 °F 31.2 °F 39.2 °F 100% 29.64 in 7.0 mi SE 13.8 mph 27.6 mph 0.03 in   Overcast
1:36 PM 39.2 °F 31.6 °F 39.2 °F 100% 29.64 in 7.0 mi SE 12.7 mph 25.3 mph 0.08 in   Overcast
1:56 PM 39.2 °F 30.8 °F 39.2 °F 100% 29.64 in 7.0 mi ESE 15.0 mph 24.2 mph 0.11 in   Mostly Cloudy
2:16 PM 39.2 °F 32.0 °F 39.2 °F 100% 29.64 in 5.0 mi ESE 11.5 mph 23.0 mph 0.02 in   Mostly Cloudy
2:36 PM 39.2 °F 30.8 °F 39.2 °F 100% 29.63 in 5.0 mi East 15.0 mph 21.9 mph 0.05 in   Mostly Cloudy
2:56 PM 39.2 °F 30.8 °F 39.2 °F 100% 29.62 in 5.0 mi ESE 15.0 mph 20.7 mph 0.08 in   Overcast
3:16 PM 39.2 °F 30.8 °F 39.2 °F 100% 29.62 in 4.0 mi ESE 15.0 mph 21.9 mph 0.05 in   Overcast
3:36 PM 39.2 °F 32.0 °F 39.2 °F 100% 29.62 in 3.0 mi East 11.5 mph 18.4 mph 0.13 in   Overcast
3:56 PM 39.2 °F 32.0 °F 39.2 °F 100% 29.61 in 3.0 mi East 11.5 mph 18.4 mph 0.23 in   Overcast
4:16 PM 39.2 °F 33.0 °F 39.2 °F 100% 29.60 in 3.0 mi East 9.2 mph - 0.08 in   Overcast
4:36 PM 39.2 °F 31.6 °F 39.2 °F 100% 29.60 in 3.0 mi ESE 12.7 mph 19.6 mph 0.16 in   Overcast
4:56 PM 39.2 °F 33.0 °F 39.2 °F 100% 29.59 in 2.5 mi East 9.2 mph - 0.23 in   Overcast
5:16 PM 39.2 °F 30.8 °F 39.2 °F 100% 29.60 in 3.0 mi ESE 15.0 mph 21.9 mph 0.06 in   Overcast
5:36 PM 39.2 °F 30.5 °F 39.2 °F 100% 29.59 in 3.0 mi ESE 16.1 mph 24.2 mph 0.08 in   Overcast
5:56 PM 39.2 °F 30.8 °F 39.2 °F 100% 29.59 in 4.0 mi SE 15.0 mph 26.5 mph 0.12 in   Overcast
6:16 PM 39.2 °F 31.2 °F 39.2 °F 100% 29.59 in 4.0 mi SE 13.8 mph 27.6 mph 0.04 in   Overcast
6:36 PM 39.2 °F 31.2 °F 39.2 °F 100% 29.59 in 4.0 mi ESE 13.8 mph 21.9 mph 0.07 in   Overcast
6:56 PM 39.2 °F 31.6 °F 39.2 °F 100% 29.59 in 3.0 mi SE 12.7 mph 29.9 mph 0.10 in   Overcast
7:16 PM 39.2 °F 29.8 °F 39.2 °F 100% 29.59 in 5.0 mi SE 18.4 mph 27.6 mph 0.03 in   Overcast
7:36 PM 41.0 °F 33.1 °F 39.2 °F 93% 29.58 in 4.0 mi ESE 15.0 mph 33.4 mph 0.07 in   Overcast
7:56 PM 39.2 °F 30.2 °F 39.2 °F 100% 29.59 in 3.0 mi SE 17.3 mph 36.8 mph 0.11 in   Overcast
8:16 PM 41.0 °F 33.5 °F 39.2 °F 93% 29.58 in 2.5 mi SE 13.8 mph 35.7 mph 0.02 in   Overcast
8:36 PM 41.0 °F 31.1 °F 39.2 °F 93% 29.58 in 2.5 mi SSE 23.0 mph 39.1 mph 0.06 in   Overcast
8:56 PM 41.0 °F 31.6 °F 39.2 °F 93% 29.59 in 2.5 mi SE 20.7 mph 35.7 mph 0.12 in   Overcast
9:16 PM 39.2 °F 28.3 °F 39.2 °F 100% 29.59 in 2.5 mi SSE 25.3 mph 41.4 mph 0.08 in   Overcast
9:36 PM 41.0 °F 30.9 °F 39.2 °F 93% 29.58 in 2.5 mi SE 24.2 mph 32.2 mph 0.13 in   Overcast
9:56 PM 39.2 °F 29.0 °F 37.4 °F 93% 29.59 in 2.0 mi SE 21.9 mph 41.4 mph 0.18 in   Overcast
10:16 PM 41.0 °F 31.1 °F 39.2 °F 93% 29.59 in 2.0 mi SSE 23.0 mph 41.4 mph 0.05 in   Overcast
10:36 PM 41.0 °F 31.9 °F 39.2 °F 93% 29.59 in 2.0 mi SE 19.6 mph 42.6 mph 0.09 in   Overcast
10:56 PM 39.2 °F 29.3 °F 39.2 °F 100% 29.59 in 3.0 mi SSE 20.7 mph 27.6 mph 0.13 in   Overcast
11:16 PM 41.0 °F 32.2 °F 39.2 °F 93% 29.59 in 2.5 mi SE 18.4 mph 33.4 mph 0.05 in   Overcast
11:36 PM 39.2 °F 29.3 °F 37.4 °F 93% 29.59 in 2.5 mi SSE 20.7 mph 33.4 mph 0.10 in   Overcast
11:56 PM 41.0 °F 33.1 °F 39.2 °F 93% 29.60 in 3.0 mi SE 15.0 mph 49.5 mph 0.18 in   Overcast